sensor_id;sensor_type;location;lat;lon;timestamp;pressure;altitude;pressure_sealevel;temperature;humidity
37298;BME280;30517;51.932;4.278;2023-03-22T00:01:57;100906.75;;;12.34;67.36
37298;BME280;30517;51.932;4.278;2023-03-22T00:04:37;100894.44;;;12.32;67.48
37298;BME280;30517;51.932;4.278;2023-03-22T00:07:18;100895.28;;;12.32;66.95
37298;BME280;30517;51.932;4.278;2023-03-22T00:09:59;100893.56;;;12.31;67.45
37298;BME280;30517;51.932;4.278;2023-03-22T00:12:40;100889.13;;;12.30;67.93
37298;BME280;30517;51.932;4.278;2023-03-22T00:15:21;100882.06;;;12.31;67.91
37298;BME280;30517;51.932;4.278;2023-03-22T00:18:01;100881.19;;;12.30;67.50
37298;BME280;30517;51.932;4.278;2023-03-22T00:20:54;100867.09;;;12.28;67.66
37298;BME280;30517;51.932;4.278;2023-03-22T00:23:35;100859.16;;;12.28;67.03
37298;BME280;30517;51.932;4.278;2023-03-22T00:26:16;100853.91;;;12.27;67.08
37298;BME280;30517;51.932;4.278;2023-03-22T00:28:57;100851.22;;;12.28;67.70
37298;BME280;30517;51.932;4.278;2023-03-22T00:31:37;100850.41;;;12.26;67.53
37298;BME280;30517;51.932;4.278;2023-03-22T00:34:18;100848.63;;;12.25;67.08
37298;BME280;30517;51.932;4.278;2023-03-22T00:36:59;100848.63;;;12.25;67.49
37298;BME280;30517;51.932;4.278;2023-03-22T00:39:40;100841.59;;;12.24;68.00
37298;BME280;30517;51.932;4.278;2023-03-22T00:42:20;100840.69;;;12.25;67.42
37298;BME280;30517;51.932;4.278;2023-03-22T00:45:01;100825.72;;;12.23;67.70
37298;BME280;30517;51.932;4.278;2023-03-22T00:47:42;100828.41;;;12.21;67.09
37298;BME280;30517;51.932;4.278;2023-03-22T00:50:23;100813.41;;;12.22;67.81
37298;BME280;30517;51.932;4.278;2023-03-22T00:53:04;100812.53;;;12.21;67.17
37298;BME280;30517;51.932;4.278;2023-03-22T00:55:44;100808.13;;;12.20;66.91
37298;BME280;30517;51.932;4.278;2023-03-22T00:58:25;100800.19;;;12.20;67.63
37298;BME280;30517;51.932;4.278;2023-03-22T01:01:06;100796.66;;;12.21;67.51
37298;BME280;30517;51.932;4.278;2023-03-22T01:03:46;100794.03;;;12.21;67.16
37298;BME280;30517;51.932;4.278;2023-03-22T01:06:31;100788.72;;;12.20;66.87
37298;BME280;30517;51.932;4.278;2023-03-22T01:09:11;100788.72;;;12.20;67.25
37298;BME280;30517;51.932;4.278;2023-03-22T01:11:54;100784.31;;;12.20;67.60
37298;BME280;30517;51.932;4.278;2023-03-22T01:14:35;100771.13;;;12.18;67.33
37298;BME280;30517;51.932;4.278;2023-03-22T01:17:16;100758.78;;;12.17;67.75
37298;BME280;30517;51.932;4.278;2023-03-22T01:19:56;100754.41;;;12.18;67.36
37298;BME280;30517;51.932;4.278;2023-03-22T01:22:37;100749.09;;;12.16;67.36
37298;BME280;30517;51.932;4.278;2023-03-22T01:25:18;100747.34;;;12.17;67.17
37298;BME280;30517;51.932;4.278;2023-03-22T01:27:59;100745.59;;;12.16;67.41
37298;BME280;30517;51.932;4.278;2023-03-22T01:30:41;100736.78;;;12.14;67.28
37298;BME280;30517;51.932;4.278;2023-03-22T01:33:22;100742.94;;;12.16;67.56
37298;BME280;30517;51.932;4.278;2023-03-22T01:36:03;100735.00;;;12.16;67.38
37298;BME280;30517;51.932;4.278;2023-03-22T01:38:43;100735.88;;;12.15;67.25
37298;BME280;30517;51.932;4.278;2023-03-22T01:41:24;100731.50;;;12.14;67.63
37298;BME280;30517;51.932;4.278;2023-03-22T01:44:21;100733.28;;;12.12;67.40
37298;BME280;30517;51.932;4.278;2023-03-22T01:47:02;100727.13;;;12.11;67.60
37298;BME280;30517;51.932;4.278;2023-03-22T01:49:43;100730.63;;;12.12;68.11
37298;BME280;30517;51.932;4.278;2023-03-22T01:52:23;100727.13;;;12.11;67.54
37298;BME280;30517;51.932;4.278;2023-03-22T01:55:04;100727.13;;;12.11;67.21
37298;BME280;30517;51.932;4.278;2023-03-22T01:57:48;100715.69;;;12.11;67.48
37298;BME280;30517;51.932;4.278;2023-03-22T02:00:29;100714.81;;;12.10;67.50
37298;BME280;30517;51.932;4.278;2023-03-22T02:03:11;100707.75;;;12.11;67.85
37298;BME280;30517;51.932;4.278;2023-03-22T02:05:55;100708.66;;;12.10;67.82
37298;BME280;30517;51.932;4.278;2023-03-22T02:08:36;100697.16;;;12.11;67.97
37298;BME280;30517;51.932;4.278;2023-03-22T02:11:28;100690.16;;;12.08;67.42
37298;BME280;30517;51.932;4.278;2023-03-22T02:19:47;100691.06;;;12.07;67.15
37298;BME280;30517;51.932;4.278;2023-03-22T02:25:22;100692.78;;;12.07;67.92
37298;BME280;30517;51.932;4.278;2023-03-22T02:28:12;100681.34;;;12.06;67.56
37298;BME280;30517;51.932;4.278;2023-03-22T02:31:12;100682.22;;;12.07;67.92
37298;BME280;30517;51.932;4.278;2023-03-22T02:42:07;100669.03;;;12.05;67.76
37298;BME280;30517;51.932;4.278;2023-03-22T02:44:58;100669.91;;;12.06;67.38
37298;BME280;30517;51.932;4.278;2023-03-22T02:53:56;100661.09;;;12.04;67.83
37298;BME280;30517;51.932;4.278;2023-03-22T02:56:48;100656.69;;;12.04;67.91
37298;BME280;30517;51.932;4.278;2023-03-22T02:59:36;100666.38;;;12.04;67.83
37298;BME280;30517;51.932;4.278;2023-03-22T03:02:18;100650.53;;;12.04;68.00
37298;BME280;30517;51.932;4.278;2023-03-22T03:05:00;100651.41;;;12.04;67.43
37298;BME280;30517;51.932;4.278;2023-03-22T03:07:43;100652.31;;;12.05;67.09
37298;BME280;30517;51.932;4.278;2023-03-22T03:10:26;100647.00;;;12.05;67.39
37298;BME280;30517;51.932;4.278;2023-03-22T03:13:14;100637.31;;;12.04;67.18
37298;BME280;30517;51.932;4.278;2023-03-22T03:15:55;100632.03;;;12.04;67.82
37298;BME280;30517;51.932;4.278;2023-03-22T03:18:53;100632.03;;;12.04;67.15
37298;BME280;30517;51.932;4.278;2023-03-22T03:21:42;100636.44;;;12.03;68.01
37298;BME280;30517;51.932;4.278;2023-03-22T03:24:38;100643.50;;;12.03;67.28
37298;BME280;30517;51.932;4.278;2023-03-22T03:27:27;100632.06;;;12.02;67.39
37298;BME280;30517;51.932;4.278;2023-03-22T03:30:13;100639.94;;;12.04;68.00
37298;BME280;30517;51.932;4.278;2023-03-22T03:32:56;100630.25;;;12.04;68.19
37298;BME280;30517;51.932;4.278;2023-03-22T03:35:40;100635.56;;;12.03;68.17
37298;BME280;30517;51.932;4.278;2023-03-22T03:38:25;100629.41;;;12.02;67.70
37298;BME280;30517;51.932;4.278;2023-03-22T03:41:11;100641.72;;;12.03;67.61
37298;BME280;30517;51.932;4.278;2023-03-22T03:43:53;100630.28;;;12.03;67.74
37298;BME280;30517;51.932;4.278;2023-03-22T03:46:36;100638.22;;;12.03;67.49
37298;BME280;30517;51.932;4.278;2023-03-22T03:49:17;100631.19;;;12.02;67.14
37298;BME280;30517;51.932;4.278;2023-03-22T03:51:59;100641.75;;;12.02;67.89
37298;BME280;30517;51.932;4.278;2023-03-22T03:54:40;100636.44;;;12.03;67.24
37298;BME280;30517;51.932;4.278;2023-03-22T03:57:21;100634.72;;;12.02;67.55
37298;BME280;30517;51.932;4.278;2023-03-22T04:00:03;100625.00;;;12.03;67.29
37298;BME280;30517;51.932;4.278;2023-03-22T04:02:43;100620.63;;;12.02;67.61
37298;BME280;30517;51.932;4.278;2023-03-22T04:05:24;100622.34;;;12.01;67.68
37298;BME280;30517;51.932;4.278;2023-03-22T04:08:05;100613.56;;;12.01;67.44
37298;BME280;30517;51.932;4.278;2023-03-22T04:10:49;100617.06;;;12.03;67.53
37298;BME280;30517;51.932;4.278;2023-03-22T04:13:30;100618.84;;;12.01;67.81
37298;BME280;30517;51.932;4.278;2023-03-22T04:16:11;100621.47;;;12.02;67.42
37298;BME280;30517;51.932;4.278;2023-03-22T04:18:52;100604.75;;;12.02;67.68
37298;BME280;30517;51.932;4.278;2023-03-22T04:21:32;100610.91;;;12.02;67.19
37298;BME280;30517;51.932;4.278;2023-03-22T04:24:13;100608.28;;;12.02;67.68
37298;BME280;30517;51.932;4.278;2023-03-22T04:26:54;100605.63;;;12.01;67.74
37298;BME280;30517;51.932;4.278;2023-03-22T04:29:35;100603.88;;;12.00;67.69
37298;BME280;30517;51.932;4.278;2023-03-22T04:32:16;100608.28;;;12.01;67.42
37298;BME280;30517;51.932;4.278;2023-03-22T04:35:02;100601.25;;;12.00;67.44
37298;BME280;30517;51.932;4.278;2023-03-22T04:37:43;100599.47;;;11.99;67.71
37298;BME280;30517;51.932;4.278;2023-03-22T04:40:24;100596.88;;;11.97;67.33
37298;BME280;30517;51.932;4.278;2023-03-22T04:43:05;100590.69;;;11.98;67.16
37298;BME280;30517;51.932;4.278;2023-03-22T04:45:48;100591.53;;;11.99;68.30
37298;BME280;30517;51.932;4.278;2023-03-22T04:48:29;100599.47;;;12.00;67.75
37298;BME280;30517;51.932;4.278;2023-03-22T04:51:10;100581.88;;;11.99;68.18
37298;BME280;30517;51.932;4.278;2023-03-22T04:53:51;100592.44;;;11.98;67.68
37298;BME280;30517;51.932;4.278;2023-03-22T04:56:32;100579.22;;;11.99;67.56
37298;BME280;30517;51.932;4.278;2023-03-22T04:59:13;100597.72;;;11.99;67.37
37298;BME280;30517;51.932;4.278;2023-03-22T05:01:53;100588.91;;;11.99;67.59
37298;BME280;30517;51.932;4.278;2023-03-22T05:04:34;100585.44;;;11.97;67.78
37298;BME280;30517;51.932;4.278;2023-03-22T05:07:15;100570.44;;;11.97;67.45
37298;BME280;30517;51.932;4.278;2023-03-22T05:09:56;100568.66;;;11.99;67.97
37298;BME280;30517;51.932;4.278;2023-03-22T05:12:37;100584.53;;;11.96;67.78
37298;BME280;30517;51.932;4.278;2023-03-22T05:15:18;100588.94;;;11.97;67.30
37298;BME280;30517;51.932;4.278;2023-03-22T05:17:59;100580.16;;;11.97;67.38
37298;BME280;30517;51.932;4.278;2023-03-22T05:20:40;100583.66;;;11.97;67.90
37298;BME280;30517;51.932;4.278;2023-03-22T05:23:21;100568.66;;;11.96;67.24
37298;BME280;30517;51.932;4.278;2023-03-22T05:26:02;100575.72;;;11.95;67.84
37298;BME280;30517;51.932;4.278;2023-03-22T05:28:43;100580.16;;;11.95;67.90
37298;BME280;30517;51.932;4.278;2023-03-22T05:31:23;100559.00;;;11.97;67.22
37298;BME280;30517;51.932;4.278;2023-03-22T05:34:07;100566.03;;;11.98;67.05
37298;BME280;30517;51.932;4.278;2023-03-22T05:36:49;100556.31;;;11.98;68.04
37298;BME280;30517;51.932;4.278;2023-03-22T05:39:30;100551.94;;;11.97;68.12
37298;BME280;30517;51.932;4.278;2023-03-22T05:42:11;100559.88;;;11.95;67.80
37298;BME280;30517;51.932;4.278;2023-03-22T05:44:52;100556.34;;;11.97;67.37
37298;BME280;30517;51.932;4.278;2023-03-22T05:47:32;100544.00;;;11.95;67.51
37298;BME280;30517;51.932;4.278;2023-03-22T05:50:15;100558.09;;;11.98;67.03
37298;BME280;30517;51.932;4.278;2023-03-22T05:52:56;100552.81;;;11.98;67.63
37298;BME280;30517;51.932;4.278;2023-03-22T05:55:37;100474.16;;;11.45;67.24
37298;BME280;30517;51.932;4.278;2023-03-22T05:58:18;100562.50;;;11.95;67.08
37298;BME280;30517;51.932;4.278;2023-03-22T06:01:06;100581.00;;;11.95;67.30
37298;BME280;30517;51.932;4.278;2023-03-22T06:03:47;100562.50;;;11.95;66.97
37298;BME280;30517;51.932;4.278;2023-03-22T06:06:28;100557.22;;;11.95;67.54
37298;BME280;30517;51.932;4.278;2023-03-22T06:09:09;100555.50;;;11.94;67.43
37298;BME280;30517;51.932;4.278;2023-03-22T06:11:50;100562.50;;;11.95;67.52
37298;BME280;30517;51.932;4.278;2023-03-22T06:14:31;100559.94;;;11.89;67.62
37298;BME280;30517;51.932;4.278;2023-03-22T06:17:12;100558.59;;;11.50;67.59
37298;BME280;30517;51.932;4.278;2023-03-22T06:19:53;100556.63;;;11.69;67.52
37298;BME280;30517;51.932;4.278;2023-03-22T06:22:34;100550.34;;;11.81;67.71
37298;BME280;30517;51.932;4.278;2023-03-22T06:25:15;100541.50;;;11.83;67.28
37298;BME280;30517;51.932;4.278;2023-03-22T06:27:55;100553.81;;;11.87;66.92
37298;BME280;30517;51.932;4.278;2023-03-22T06:30:36;100561.72;;;11.89;67.37
37298;BME280;30517;51.932;4.278;2023-03-22T06:33:17;100550.25;;;11.90;66.78
37298;BME280;30517;51.932;4.278;2023-03-22T06:35:57;100558.19;;;11.91;66.99
37298;BME280;30517;51.932;4.278;2023-03-22T06:38:39;100543.16;;;11.93;66.96
37298;BME280;30517;51.932;4.278;2023-03-22T06:41:20;100545.78;;;11.97;67.16
37298;BME280;30517;51.932;4.278;2023-03-22T06:44:01;100553.72;;;11.97;66.91
37298;BME280;30517;51.932;4.278;2023-03-22T06:46:45;100550.19;;;11.94;66.96
37298;BME280;30517;51.932;4.278;2023-03-22T06:49:26;100544.91;;;11.94;67.17
37298;BME280;30517;51.932;4.278;2023-03-22T06:52:07;100547.53;;;11.96;67.34
37298;BME280;30517;51.932;4.278;2023-03-22T06:54:48;100549.28;;;11.95;67.33
37298;BME280;30517;51.932;4.278;2023-03-22T06:57:29;100533.47;;;11.94;67.26
37298;BME280;30517;51.932;4.278;2023-03-22T07:00:10;100542.28;;;11.94;67.67
37298;BME280;30517;51.932;4.278;2023-03-22T07:02:51;100536.13;;;11.94;67.39
37298;BME280;30517;51.932;4.278;2023-03-22T07:05:32;100538.75;;;11.94;66.89
37298;BME280;30517;51.932;4.278;2023-03-22T07:08:13;100546.69;;;11.94;67.60
37298;BME280;30517;51.932;4.278;2023-03-22T07:10:55;100557.22;;;11.95;67.45
37298;BME280;30517;51.932;4.278;2023-03-22T07:13:35;100546.66;;;11.97;66.96
37298;BME280;30517;51.932;4.278;2023-03-22T07:16:16;100544.88;;;11.98;67.50
37298;BME280;30517;51.932;4.278;2023-03-22T07:18:57;100555.44;;;11.98;66.91
37298;BME280;30517;51.932;4.278;2023-03-22T07:21:37;100559.88;;;11.97;67.44
37298;BME280;30517;51.932;4.278;2023-03-22T07:24:18;100559.81;;;12.00;67.62
37298;BME280;30517;51.932;4.278;2023-03-22T07:26:59;100554.53;;;11.99;66.96
37298;BME280;30517;51.932;4.278;2023-03-22T07:29:40;100565.28;;;11.86;67.29
37298;BME280;30517;51.932;4.278;2023-03-22T07:32:20;100564.41;;;11.81;67.92
37298;BME280;30517;51.932;4.278;2023-03-22T07:35:01;100568.81;;;11.82;67.71
37298;BME280;30517;51.932;4.278;2023-03-22T07:37:42;100559.97;;;11.85;67.42
37298;BME280;30517;51.932;4.278;2023-03-22T07:40:23;100556.41;;;11.90;67.83
37298;BME280;30517;51.932;4.278;2023-03-22T07:43:03;100550.19;;;11.94;67.15
37298;BME280;30517;51.932;4.278;2023-03-22T07:45:44;100542.22;;;11.98;67.30
37298;BME280;30517;51.932;4.278;2023-03-22T07:48:25;100553.72;;;11.93;67.58
37298;BME280;30517;51.932;4.278;2023-03-22T07:51:07;100559.00;;;11.95;68.20
37298;BME280;30517;51.932;4.278;2023-03-22T07:53:48;100548.41;;;11.97;67.80
37298;BME280;30517;51.932;4.278;2023-03-22T07:56:29;100543.09;;;12.00;68.14
37298;BME280;30517;51.932;4.278;2023-03-22T07:59:09;100550.13;;;12.01;67.97
37298;BME280;30517;51.932;4.278;2023-03-22T08:01:50;100566.81;;;12.04;67.73
37298;BME280;30517;51.932;4.278;2023-03-22T08:04:31;100567.72;;;12.05;68.04
37298;BME280;30517;51.932;4.278;2023-03-22T08:07:13;100563.28;;;12.04;68.36
37298;BME280;30517;51.932;4.278;2023-03-22T08:09:54;100567.72;;;12.05;68.18
37298;BME280;30517;51.932;4.278;2023-03-22T08:12:35;100561.50;;;12.04;67.79
37298;BME280;30517;51.932;4.278;2023-03-22T08:15:16;100568.56;;;12.05;68.40
37298;BME280;30517;51.932;4.278;2023-03-22T08:17:57;100555.34;;;12.05;67.85
37298;BME280;30517;51.932;4.278;2023-03-22T08:20:38;100557.13;;;12.05;68.48
37298;BME280;30517;51.932;4.278;2023-03-22T08:23:18;100550.94;;;12.06;68.15
37298;BME280;30517;51.932;4.278;2023-03-22T08:25:59;100555.31;;;12.07;67.71
37298;BME280;30517;51.932;4.278;2023-03-22T08:28:40;100548.28;;;12.07;67.32
37298;BME280;30517;51.932;4.278;2023-03-22T08:31:21;100546.47;;;12.11;67.46
37298;BME280;30517;51.932;4.278;2023-03-22T08:34:02;100544.72;;;12.10;67.43
37298;BME280;30517;51.932;4.278;2023-03-22T08:36:42;100560.59;;;12.10;67.80
37298;BME280;30517;51.932;4.278;2023-03-22T08:39:23;100541.19;;;12.11;67.18
37298;BME280;30517;51.932;4.278;2023-03-22T08:42:04;100548.25;;;12.10;67.46
37298;BME280;30517;51.932;4.278;2023-03-22T08:44:45;100543.81;;;12.11;68.12
37298;BME280;30517;51.932;4.278;2023-03-22T08:47:26;100553.50;;;12.12;67.74
37298;BME280;30517;51.932;4.278;2023-03-22T08:50:09;100548.19;;;12.12;67.23
37298;BME280;30517;51.932;4.278;2023-03-22T08:52:50;100541.19;;;12.11;67.52
37298;BME280;30517;51.932;4.278;2023-03-22T08:55:32;100545.56;;;12.12;68.00
37298;BME280;30517;51.932;4.278;2023-03-22T08:58:16;100550.84;;;12.13;67.53
37298;BME280;30517;51.932;4.278;2023-03-22T09:00:59;100547.34;;;12.11;67.36
37298;BME280;30517;51.932;4.278;2023-03-22T09:03:39;100542.91;;;12.12;67.71
37298;BME280;30517;51.932;4.278;2023-03-22T09:06:20;100554.38;;;12.12;67.54
37298;BME280;30517;51.932;4.278;2023-03-22T09:09:01;100533.25;;;12.12;67.67
37298;BME280;30517;51.932;4.278;2023-03-22T09:11:42;100551.75;;;12.12;67.32
37298;BME280;30517;51.932;4.278;2023-03-22T09:14:23;100550.84;;;12.13;67.60
37298;BME280;30517;51.932;4.278;2023-03-22T09:17:04;100544.69;;;12.13;67.72
37298;BME280;30517;51.932;4.278;2023-03-22T09:19:45;100547.31;;;12.13;67.24
37298;BME280;30517;51.932;4.278;2023-03-22T09:22:26;100542.91;;;12.13;67.86
37298;BME280;30517;51.932;4.278;2023-03-22T09:25:07;100539.41;;;12.13;67.35
37298;BME280;30517;51.932;4.278;2023-03-22T09:27:48;100540.25;;;12.13;67.30
37298;BME280;30517;51.932;4.278;2023-03-22T09:30:29;100538.47;;;12.15;67.44
37298;BME280;30517;51.932;4.278;2023-03-22T09:33:10;100530.56;;;12.15;67.14
37298;BME280;30517;51.932;4.278;2023-03-22T09:35:52;100541.13;;;12.15;67.29
37298;BME280;30517;51.932;4.278;2023-03-22T09:38:35;100533.19;;;12.15;67.17
37298;BME280;30517;51.932;4.278;2023-03-22T09:41:17;100545.50;;;12.15;67.39
37298;BME280;30517;51.932;4.278;2023-03-22T09:44:01;100545.50;;;12.15;66.90
37298;BME280;30517;51.932;4.278;2023-03-22T09:46:45;100545.50;;;12.16;67.12
37298;BME280;30517;51.932;4.278;2023-03-22T09:49:28;100540.22;;;12.15;67.79
37298;BME280;30517;51.932;4.278;2023-03-22T09:52:13;100555.22;;;12.16;67.21
37298;BME280;30517;51.932;4.278;2023-03-22T09:54:54;100553.44;;;12.15;67.71
37298;BME280;30517;51.932;4.278;2023-03-22T09:57:35;100549.94;;;12.16;67.23
37298;BME280;30517;51.932;4.278;2023-03-22T10:00:21;100549.06;;;12.14;67.31
37298;BME280;30517;51.932;4.278;2023-03-22T10:05:53;100563.16;;;12.16;67.21
37298;BME280;30517;51.932;4.278;2023-03-22T10:11:30;100540.22;;;12.15;67.57
37298;BME280;30517;51.932;4.278;2023-03-22T10:17:03;100528.78;;;12.16;67.48
37298;BME280;30517;51.932;4.278;2023-03-22T10:19:48;100527.91;;;12.15;67.48
37298;BME280;30517;51.932;4.278;2023-03-22T10:22:32;100528.78;;;12.16;67.64
37298;BME280;30517;51.932;4.278;2023-03-22T10:25:16;100501.47;;;12.15;67.51
37298;BME280;30517;51.932;4.278;2023-03-22T10:27:58;100517.28;;;12.17;67.53
37298;BME280;30517;51.932;4.278;2023-03-22T10:30:39;100512.91;;;12.16;66.93
37298;BME280;30517;51.932;4.278;2023-03-22T10:33:32;100517.34;;;12.14;67.06
37298;BME280;30517;51.932;4.278;2023-03-22T10:36:15;100518.25;;;12.13;66.85
37298;BME280;30517;51.932;4.278;2023-03-22T10:38:59;100516.47;;;12.12;67.84
37298;BME280;30517;51.932;4.278;2023-03-22T10:41:43;100506.81;;;12.11;67.14
37298;BME280;30517;51.932;4.278;2023-03-22T10:44:25;100511.19;;;12.12;67.96
37298;BME280;30517;51.932;4.278;2023-03-22T10:47:07;100506.81;;;12.11;67.55
37298;BME280;30517;51.932;4.278;2023-03-22T10:49:51;100488.31;;;12.11;67.51
37298;BME280;30517;51.932;4.278;2023-03-22T10:55:16;100482.19;;;12.07;67.64
37298;BME280;30517;51.932;4.278;2023-03-22T10:58:09;100488.34;;;12.06;68.45
37298;BME280;30517;51.932;4.278;2023-03-22T11:00:52;100514.84;;;12.05;68.03
37298;BME280;30517;51.932;4.278;2023-03-22T11:06:18;100520.13;;;12.05;68.29
37298;BME280;30517;51.932;4.278;2023-03-22T11:09:01;100523.63;;;12.04;67.93
37298;BME280;30517;51.932;4.278;2023-03-22T11:11:55;100536.91;;;12.01;68.63
37298;BME280;30517;51.932;4.278;2023-03-22T11:14:43;100536.91;;;12.02;68.70
37298;BME280;30517;51.932;4.278;2023-03-22T11:17:24;100556.22;;;12.04;68.07
37298;BME280;30517;51.932;4.278;2023-03-22T11:20:05;100564.16;;;12.04;68.66
37298;BME280;30517;51.932;4.278;2023-03-22T11:22:46;100566.78;;;12.06;68.72
37298;BME280;30517;51.932;4.278;2023-03-22T11:25:31;100566.88;;;11.98;68.88
37298;BME280;30517;51.932;4.278;2023-03-22T11:30:59;100553.63;;;12.03;69.66
37298;BME280;30517;51.932;4.278;2023-03-22T11:33:59;100548.28;;;12.04;69.00
37298;BME280;30517;51.932;4.278;2023-03-22T11:36:42;100557.09;;;12.08;69.43
37298;BME280;30517;51.932;4.278;2023-03-22T11:39:24;100557.91;;;12.11;68.95
37298;BME280;30517;51.932;4.278;2023-03-22T11:42:13;100544.69;;;12.13;69.26
37298;BME280;30517;51.932;4.278;2023-03-22T11:44:57;100541.13;;;12.14;68.95
37298;BME280;30517;51.932;4.278;2023-03-22T11:47:38;100550.78;;;12.18;68.30
37298;BME280;30517;51.932;4.278;2023-03-22T11:50:28;100548.97;;;12.20;67.99
37298;BME280;30517;51.932;4.278;2023-03-22T11:53:17;100550.69;;;12.23;68.95
37298;BME280;30517;51.932;4.278;2023-03-22T11:55:58;100548.94;;;12.23;68.57
37298;BME280;30517;51.932;4.278;2023-03-22T11:58:44;100553.38;;;12.21;68.88
37298;BME280;30517;51.932;4.278;2023-03-22T12:04:10;100552.47;;;12.22;68.28
37298;BME280;30517;51.932;4.278;2023-03-22T12:06:57;100548.06;;;12.24;68.30
37298;BME280;30517;51.932;4.278;2023-03-22T12:09:51;100550.66;;;12.26;68.73
37298;BME280;30517;51.932;4.278;2023-03-22T12:12:36;100543.63;;;12.26;68.17
37298;BME280;30517;51.932;4.278;2023-03-22T12:18:21;100533.88;;;12.28;68.57
37298;BME280;30517;51.932;4.278;2023-03-22T12:21:02;100535.63;;;12.29;68.71
37298;BME280;30517;51.932;4.278;2023-03-22T12:23:43;100525.03;;;12.31;68.17
37298;BME280;30517;51.932;4.278;2023-03-22T12:26:24;100530.31;;;12.31;68.41
37298;BME280;30517;51.932;4.278;2023-03-22T12:29:07;100529.41;;;12.33;68.27
37298;BME280;30517;51.932;4.278;2023-03-22T12:31:58;100527.63;;;12.34;68.37
37298;BME280;30517;51.932;4.278;2023-03-22T12:34:42;100501.16;;;12.35;68.17
37298;BME280;30517;51.932;4.278;2023-03-22T12:37:27;100512.66;;;12.34;68.51
37298;BME280;30517;51.932;4.278;2023-03-22T12:40:20;100517.94;;;12.34;68.25
37298;BME280;30517;51.932;4.278;2023-03-22T12:46:02;100525.84;;;12.36;68.58
37298;BME280;30517;51.932;4.278;2023-03-22T12:48:44;100517.88;;;12.37;68.50
37298;BME280;30517;51.932;4.278;2023-03-22T12:51:27;100518.75;;;12.38;68.50
37298;BME280;30517;51.932;4.278;2023-03-22T12:54:08;100516.09;;;12.39;68.71
37298;BME280;30517;51.932;4.278;2023-03-22T12:56:51;100521.41;;;12.39;68.59
37298;BME280;30517;51.932;4.278;2023-03-22T12:59:33;100529.28;;;12.41;68.33
37298;BME280;30517;51.932;4.278;2023-03-22T13:04:57;100528.38;;;12.42;68.64
37298;BME280;30517;51.932;4.278;2023-03-22T13:16:01;100523.03;;;12.47;68.58
37298;BME280;30517;51.932;4.278;2023-03-22T13:18:56;100515.97;;;12.47;68.30
37298;BME280;30517;51.932;4.278;2023-03-22T13:21:37;100508.94;;;12.48;68.87
37298;BME280;30517;51.932;4.278;2023-03-22T13:24:19;100510.66;;;12.49;68.49
37298;BME280;30517;51.932;4.278;2023-03-22T13:27:01;100519.47;;;12.51;68.58
37298;BME280;30517;51.932;4.278;2023-03-22T13:29:47;100517.69;;;12.50;68.08
37298;BME280;30517;51.932;4.278;2023-03-22T13:32:32;100517.69;;;12.51;67.99
37298;BME280;30517;51.932;4.278;2023-03-22T13:38:05;100517.63;;;12.53;68.90
37298;BME280;30517;51.932;4.278;2023-03-22T13:41:31;100508.81;;;12.54;68.50
37298;BME280;30517;51.932;4.278;2023-03-22T13:43:53;100512.34;;;12.53;68.38
37298;BME280;30517;51.932;4.278;2023-03-22T13:49:16;100504.41;;;12.54;68.49
37298;BME280;30517;51.932;4.278;2023-03-22T13:52:01;100491.16;;;12.56;68.71
37298;BME280;30517;51.932;4.278;2023-03-22T13:54:47;100488.50;;;12.56;68.24
37298;BME280;30517;51.932;4.278;2023-03-22T13:57:48;100486.69;;;12.58;68.05
37298;BME280;30517;51.932;4.278;2023-03-22T14:00:33;100483.19;;;12.57;68.73
37298;BME280;30517;51.932;4.278;2023-03-22T14:03:17;100483.19;;;12.57;68.75
37298;BME280;30517;51.932;4.278;2023-03-22T14:06:07;100484.03;;;12.58;68.52
37298;BME280;30517;51.932;4.278;2023-03-22T14:08:52;100481.41;;;12.58;69.02
37298;BME280;30517;51.932;4.278;2023-03-22T14:14:18;100479.59;;;12.60;68.34
37298;BME280;30517;51.932;4.278;2023-03-22T14:17:12;100473.41;;;12.62;68.76
37298;BME280;30517;51.932;4.278;2023-03-22T14:19:56;100470.75;;;12.62;68.26
37298;BME280;30517;51.932;4.278;2023-03-22T14:22:38;100475.22;;;12.59;70.47
37298;BME280;30517;51.932;4.278;2023-03-22T14:25:23;100467.19;;;12.63;69.59
37298;BME280;30517;51.932;4.278;2023-03-22T14:28:05;100457.50;;;12.64;69.85
37298;BME280;30517;51.932;4.278;2023-03-22T14:30:47;100453.97;;;12.63;69.37
37298;BME280;30517;51.932;4.278;2023-03-22T14:33:28;100455.69;;;12.66;68.86
37298;BME280;30517;51.932;4.278;2023-03-22T14:36:11;100460.09;;;12.67;69.15
37298;BME280;30517;51.932;4.278;2023-03-22T14:38:52;100465.38;;;12.67;69.54
37298;BME280;30517;51.932;4.278;2023-03-22T14:41:32;100463.59;;;12.69;68.74
37298;BME280;30517;51.932;4.278;2023-03-22T14:44:13;100461.78;;;12.71;69.39
37298;BME280;30517;51.932;4.278;2023-03-22T14:47:02;100455.59;;;12.72;68.61
37298;BME280;30517;51.932;4.278;2023-03-22T14:49:45;100452.03;;;12.73;68.68
37298;BME280;30517;51.932;4.278;2023-03-22T14:52:27;100463.50;;;12.74;68.70
37298;BME280;30517;51.932;4.278;2023-03-22T14:55:14;100462.63;;;12.75;68.86
37298;BME280;30517;51.932;4.278;2023-03-22T14:57:57;100454.63;;;12.76;69.35
37298;BME280;30517;51.932;4.278;2023-03-22T15:00:39;100460.78;;;12.78;68.74
37298;BME280;30517;51.932;4.278;2023-03-22T15:03:24;100457.28;;;12.78;68.71
37298;BME280;30517;51.932;4.278;2023-03-22T15:06:08;100444.03;;;12.76;68.69
37298;BME280;30517;51.932;4.278;2023-03-22T15:08:51;100451.97;;;12.78;69.27
37298;BME280;30517;51.932;4.278;2023-03-22T15:11:32;100450.19;;;12.78;68.83
37298;BME280;30517;51.932;4.278;2023-03-22T15:14:13;100445.81;;;12.77;68.82
37298;BME280;30517;51.932;4.278;2023-03-22T15:16:54;100444.03;;;12.78;69.42
37298;BME280;30517;51.932;4.278;2023-03-22T15:19:49;100441.34;;;12.79;68.86